Time;durP1;ratioP1;P1;durP2;ratioP2;P2;SDS_P1;SDS_P2;PMS_P1;PMS_P2;Temp;Humidity;BMP_temperature;BMP_pressure;BME280_temperature;BME280_humidity;BME280_pressure;Samples;Min_cycle;Max_cycle;Signal;HPM_P1;HPM_P2
2022/03/17 00:02:17;;;;;;;51.45;30.00;;;6.10;99.90;;;;;;4965370;28;20505;-60
2022/03/17 00:04:44;;;;;;;59.53;34.03;;;6.10;99.90;;;;;;4963192;28;20563;-60
2022/03/17 00:07:12;;;;;;;;;;;6.10;99.90;;;;;;4964817;28;20917;-60
2022/03/17 00:09:39;;;;;;;43.92;27.05;;;6.10;99.90;;;;;;4963572;28;20066;-60
2022/03/17 00:12:08;;;;;;;46.22;29.95;;;6.10;99.90;;;;;;4964679;28;20037;-60
2022/03/17 00:14:36;;;;;;;46.83;28.35;;;6.10;99.90;;;;;;4962116;28;20850;-60
2022/03/17 00:17:03;;;;;;;41.90;26.90;;;6.10;99.90;;;;;;4964598;28;20046;-60
2022/03/17 00:19:31;;;;;;;48.15;28.23;;;6.10;99.90;;;;;;4963028;28;20057;-61
2022/03/17 00:21:59;;;;;;;44.95;26.60;;;6.10;99.90;;;;;;4965074;28;20061;-60
2022/03/17 00:24:26;;;;;;;45.10;27.00;;;6.10;99.90;;;;;;4964031;28;20486;-60
2022/03/17 00:26:53;;;;;;;43.55;28.25;;;6.10;99.90;;;;;;4963967;28;20042;-60
2022/03/17 00:29:20;;;;;;;49.70;31.38;;;6.10;99.90;;;;;;4965632;28;20046;-59
2022/03/17 00:31:47;;;;;;;50.88;29.83;;;6.10;99.90;;;;;;4964162;28;20038;-60
2022/03/17 00:34:14;;;;;;;50.90;30.80;;;6.10;99.90;;;;;;4961586;28;20046;-60
2022/03/17 00:36:41;;;;;;;;;;;6.10;99.90;;;;;;4962802;28;20575;-60
2022/03/17 00:39:08;;;;;;;45.75;27.92;;;6.10;99.90;;;;;;4963870;28;20086;-60
2022/03/17 00:41:36;;;;;;;42.80;26.88;;;6.10;99.90;;;;;;4964991;28;20050;-60
2022/03/17 00:44:03;;;;;;;;;;;6.00;99.90;;;;;;4963536;28;20038;-60
2022/03/17 00:46:30;;;;;;;44.95;26.25;;;6.00;99.90;;;;;;4962734;28;20034;-59
2022/03/17 00:48:57;;;;;;;57.53;30.88;;;6.00;99.90;;;;;;4962847;28;20042;-59
2022/03/17 00:51:23;;;;;;;;;;;6.00;99.90;;;;;;4963841;28;20774;-59
2022/03/17 00:53:50;;;;;;;47.42;29.20;;;6.00;99.90;;;;;;4963790;28;19928;-60
2022/03/17 00:56:17;;;;;;;45.28;27.13;;;6.00;99.90;;;;;;4963255;28;20045;-59
2022/03/17 00:58:45;;;;;;;;;;;6.00;99.90;;;;;;4964729;28;20574;-59
2022/03/17 01:01:14;;;;;;;40.65;25.88;;;6.00;99.90;;;;;;4964040;28;20194;-59
2022/03/17 01:03:43;;;;;;;40.90;26.52;;;6.00;99.90;;;;;;4962991;28;20807;-60
2022/03/17 01:06:10;;;;;;;44.40;27.35;;;6.00;99.90;;;;;;4948594;28;20507;-60
2022/03/17 01:08:37;;;;;;;43.25;26.65;;;6.00;99.90;;;;;;4963985;28;20045;-60
2022/03/17 01:11:05;;;;;;;44.55;27.35;;;6.00;99.90;;;;;;4963492;28;20053;-60
2022/03/17 01:13:32;;;;;;;42.33;27.42;;;6.00;99.90;;;;;;4962612;28;20041;-59
2022/03/17 01:15:59;;;;;;;42.08;27.48;;;6.00;99.90;;;;;;4963897;28;20045;-60
2022/03/17 01:18:26;;;;;;;44.13;26.67;;;5.90;99.90;;;;;;4962885;28;20957;-60
2022/03/17 01:20:53;;;;;;;42.10;26.75;;;5.90;99.90;;;;;;4961490;28;20060;-60
2022/03/17 01:23:20;;;;;;;50.35;31.55;;;5.90;99.90;;;;;;4963635;28;20448;-59
2022/03/17 01:25:47;;;;;;;43.92;28.67;;;5.90;99.90;;;;;;4962915;28;20054;-60
2022/03/17 01:28:14;;;;;;;;;;;5.90;99.90;;;;;;4964881;28;20057;-60
2022/03/17 01:30:41;;;;;;;49.80;29.27;;;5.90;99.90;;;;;;4963062;28;19965;-60
2022/03/17 01:33:08;;;;;;;50.95;28.95;;;5.80;99.90;;;;;;4962675;28;20199;-59
2022/03/17 01:35:35;;;;;;;;;;;5.80;99.90;;;;;;4962069;28;20053;-59
2022/03/17 01:38:01;;;;;;;48.08;28.33;;;5.80;99.90;;;;;;4963246;28;19936;-59
2022/03/17 01:40:28;;;;;;;43.72;27.75;;;5.80;99.90;;;;;;4963009;28;20595;-60
2022/03/17 01:42:55;;;;;;;45.75;27.88;;;5.80;99.90;;;;;;4963425;28;20618;-60
2022/03/17 01:45:22;;;;;;;50.80;29.60;;;5.80;99.90;;;;;;4962792;28;20211;-60
2022/03/17 01:47:49;;;;;;;41.10;26.80;;;5.80;99.90;;;;;;4961966;28;20046;-60
2022/03/17 01:50:17;;;;;;;;;;;5.80;99.90;;;;;;4961484;28;20056;-60
2022/03/17 01:52:44;;;;;;;53.22;32.45;;;5.80;99.90;;;;;;4963112;28;20485;-60
2022/03/17 01:55:13;;;;;;;52.78;30.38;;;5.70;99.90;;;;;;4959030;28;20990;-60
2022/03/17 01:57:42;;;;;;;49.13;27.77;;;5.70;99.90;;;;;;4962929;28;20046;-60
2022/03/17 02:00:13;;;;;;;43.35;27.27;;;5.70;99.90;;;;;;4964085;28;20049;-60
2022/03/17 02:02:42;;;;;;;46.78;28.73;;;5.70;99.90;;;;;;4962482;28;20790;-59
2022/03/17 02:05:09;;;;;;;45.63;27.88;;;5.70;99.90;;;;;;4961845;28;20042;-60
2022/03/17 02:07:36;;;;;;;49.67;30.05;;;5.70;99.90;;;;;;4961473;28;20084;-59
2022/03/17 02:10:04;;;;;;;40.05;25.70;;;5.70;99.90;;;;;;4961647;28;20277;-59
2022/03/17 02:15:17;;;;;;;44.38;27.48;;;5.60;99.90;;;;;;4961016;28;20057;-60
2022/03/17 02:17:44;;;;;;;;;;;5.70;99.90;;;;;;4962372;28;20038;-60
2022/03/17 02:20:14;;;;;;;51.97;29.87;;;5.70;99.90;;;;;;4963234;28;19936;-60
2022/03/17 02:22:47;;;;;;;44.92;28.23;;;5.70;99.90;;;;;;4963915;28;20054;-60
2022/03/17 02:25:36;;;;;;;46.53;28.10;;;5.60;99.90;;;;;;4961103;28;20399;-59
2022/03/17 02:28:05;;;;;;;45.10;28.35;;;5.70;99.90;;;;;;4963746;28;20401;-60
2022/03/17 02:30:35;;;;;;;49.28;29.77;;;5.60;99.90;;;;;;4963377;28;20049;-60
2022/03/17 02:33:05;;;;;;;41.15;26.42;;;5.70;99.90;;;;;;4962441;28;20061;-60
2022/03/17 02:35:33;;;;;;;42.42;26.95;;;5.60;99.90;;;;;;4962053;28;20042;-60
2022/03/17 02:38:02;;;;;;;47.75;28.98;;;5.60;99.90;;;;;;4962975;28;20220;-60
2022/03/17 02:40:35;;;;;;;50.20;27.65;;;5.60;99.90;;;;;;4961704;28;20401;-59
2022/03/17 02:43:04;;;;;;;45.42;27.38;;;5.60;99.90;;;;;;4961452;28;20034;-60
2022/03/17 02:45:33;;;;;;;43.63;28.13;;;5.60;99.90;;;;;;4962901;28;20042;-60
2022/03/17 02:48:00;;;;;;;46.20;29.02;;;5.60;99.90;;;;;;4962110;28;20031;-60
2022/03/17 02:50:27;;;;;;;47.08;28.80;;;5.60;99.90;;;;;;4962528;28;20071;-59
2022/03/17 02:52:54;;;;;;;50.55;30.48;;;5.60;99.90;;;;;;4961793;28;20084;-59
2022/03/17 02:55:21;;;;;;;47.47;29.40;;;5.50;99.90;;;;;;4962400;28;20092;-60
2022/03/17 02:57:49;;;;;;;;;;;5.50;99.90;;;;;;4963627;28;20041;-59
2022/03/17 03:00:16;;;;;;;44.42;28.00;;;5.50;99.90;;;;;;4966084;28;20083;-60
2022/03/17 03:02:44;;;;;;;45.10;26.70;;;5.50;99.90;;;;;;4966350;28;20057;-60
2022/03/17 03:05:17;;;;;;;51.22;28.27;;;5.50;99.90;;;;;;4962627;28;20863;-60
2022/03/17 03:07:44;;;;;;;;;;;5.50;99.90;;;;;;4965009;28;20053;-60
2022/03/17 03:10:11;;;;;;;51.50;28.27;;;5.50;99.90;;;;;;4966899;28;20334;-60
2022/03/17 03:12:38;;;;;;;;;;;5.50;99.90;;;;;;4966540;28;20057;-60
2022/03/17 03:15:06;;;;;;;44.53;26.80;;;5.50;99.90;;;;;;4964791;28;19925;-60
2022/03/17 03:17:33;;;;;;;45.70;28.23;;;5.50;99.90;;;;;;4964456;28;20531;-60
2022/03/17 03:20:00;;;;;;;55.22;31.92;;;5.50;99.90;;;;;;4964323;28;20594;-59
2022/03/17 03:22:29;;;;;;;;;;;5.50;99.90;;;;;;4966992;28;20567;-60
2022/03/17 03:24:57;;;;;;;46.33;27.67;;;5.50;99.90;;;;;;4964518;28;19968;-60
2022/03/17 03:27:27;;;;;;;50.22;31.23;;;5.50;99.90;;;;;;4965474;28;20041;-60
2022/03/17 03:29:55;;;;;;;47.00;29.05;;;5.50;99.90;;;;;;4965069;28;20046;-60
2022/03/17 03:32:24;;;;;;;45.08;27.10;;;5.60;99.90;;;;;;4961649;28;20047;-60
2022/03/17 03:34:51;;;;;;;43.97;27.48;;;5.50;99.90;;;;;;4957709;28;20045;-60
2022/03/17 03:37:25;;;;;;;44.20;27.52;;;5.60;99.90;;;;;;4963807;28;20045;-60
2022/03/17 03:39:54;;;;;;;47.35;27.00;;;5.60;99.90;;;;;;4966405;28;20049;-59
2022/03/17 03:42:22;;;;;;;45.78;27.90;;;5.60;99.90;;;;;;4964610;28;20369;-59
2022/03/17 03:44:49;;;;;;;46.08;28.30;;;5.60;99.90;;;;;;4963470;28;20068;-59
2022/03/17 03:47:16;;;;;;;48.15;30.42;;;5.60;99.90;;;;;;4965161;28;20199;-60
2022/03/17 03:49:43;;;;;;;;;;;5.60;99.90;;;;;;4965886;28;20198;-59
2022/03/17 03:52:13;;;;;;;48.97;29.30;;;5.70;99.90;;;;;;4964922;28;19956;-60
2022/03/17 03:54:40;;;;;;;47.63;30.50;;;5.70;99.90;;;;;;4962351;28;20913;-60
2022/03/17 03:57:07;;;;;;;45.47;27.63;;;5.80;99.90;;;;;;4963898;28;20057;-60
2022/03/17 03:59:34;;;;;;;46.13;26.95;;;5.80;99.90;;;;;;4964503;28;20219;-60
2022/03/17 04:02:07;;;;;;;45.88;28.33;;;5.80;99.90;;;;;;4961375;28;20046;-60
2022/03/17 04:04:36;;;;;;;49.42;30.25;;;5.80;99.90;;;;;;4963160;28;20931;-60
2022/03/17 04:07:05;;;;;;;42.75;26.92;;;5.90;99.90;;;;;;4963666;28;20578;-60
2022/03/17 04:09:34;;;;;;;42.15;27.10;;;5.80;99.90;;;;;;4963603;28;20042;-59
2022/03/17 04:12:03;;;;;;;44.60;28.15;;;5.90;99.90;;;;;;4963433;28;20050;-60
2022/03/17 04:14:31;;;;;;;42.90;27.48;;;5.80;99.90;;;;;;4963872;28;20481;-60
2022/03/17 04:16:59;;;;;;;41.30;26.73;;;5.80;99.90;;;;;;4964670;28;20057;-58
2022/03/17 04:19:27;;;;;;;43.97;27.95;;;5.90;99.90;;;;;;4964114;28;20137;-60
2022/03/17 04:21:54;;;;;;;47.17;28.05;;;5.80;99.90;;;;;;4964134;28;20912;-60
2022/03/17 04:24:21;;;;;;;44.20;26.70;;;5.90;99.90;;;;;;4961625;28;20073;-60
2022/03/17 04:26:48;;;;;;;47.35;28.13;;;5.90;99.90;;;;;;4964621;28;20038;-60
2022/03/17 04:29:16;;;;;;;48.22;29.15;;;5.90;99.90;;;;;;4961997;28;20524;-60
2022/03/17 04:31:44;;;;;;;49.40;29.95;;;5.90;99.90;;;;;;4964275;28;20041;-60
2022/03/17 04:34:11;;;;;;;43.90;27.55;;;5.90;99.90;;;;;;4962946;28;20081;-59
2022/03/17 04:36:38;;;;;;;49.13;27.88;;;5.90;99.90;;;;;;4962483;28;20037;-60
2022/03/17 04:39:06;;;;;;;48.75;29.77;;;5.90;99.90;;;;;;4964298;28;20560;-60
2022/03/17 04:41:33;;;;;;;51.80;30.13;;;5.80;99.90;;;;;;4964560;28;20046;-59
2022/03/17 04:44:00;;;;;;;50.42;29.48;;;5.80;99.90;;;;;;4961163;28;20061;-60
2022/03/17 04:46:27;;;;;;;;;;;5.80;99.90;;;;;;4963502;28;20049;-59
2022/03/17 04:48:54;;;;;;;52.75;30.05;;;5.80;99.90;;;;;;4963714;28;19929;-59
2022/03/17 04:51:20;;;;;;;;;;;5.80;99.90;;;;;;4963881;28;20052;-60
2022/03/17 04:53:47;;;;;;;58.17;31.92;;;5.70;99.90;;;;;;4962032;28;19926;-60
2022/03/17 04:56:18;;;;;;;59.95;34.65;;;5.70;99.90;;;;;;4963517;28;20097;-60
2022/03/17 04:58:46;;;;;;;49.88;30.58;;;5.70;99.90;;;;;;4963060;28;20320;-60
2022/03/17 05:01:14;;;;;;;52.53;29.58;;;5.60;99.90;;;;;;4963939;28;20048;-60
2022/03/17 05:03:42;;;;;;;52.08;29.02;;;5.60;99.90;;;;;;4962055;28;20045;-60
2022/03/17 05:06:14;;;;;;;50.80;27.55;;;5.60;99.90;;;;;;4948243;28;20038;-59
2022/03/17 05:08:41;;;;;;;48.75;28.48;;;5.50;99.90;;;;;;4964410;28;20583;-58
2022/03/17 05:11:09;;;;;;;46.78;24.80;;;5.50;99.90;;;;;;4963065;28;20665;-59
2022/03/17 05:13:37;;;;;;;46.03;27.85;;;5.50;99.90;;;;;;4962738;28;20419;-59
2022/03/17 05:16:05;;;;;;;42.40;26.63;;;5.50;99.90;;;;;;4963097;28;20056;-60
2022/03/17 05:18:33;;;;;;;41.90;25.88;;;5.50;99.90;;;;;;4962352;28;20072;-60
2022/03/17 05:21:00;;;;;;;41.28;26.20;;;5.50;99.90;;;;;;4963309;28;20103;-60
2022/03/17 05:23:30;;;;;;;45.25;27.10;;;5.40;99.90;;;;;;4963592;28;20046;-60
2022/03/17 05:25:57;;;;;;;46.35;27.98;;;5.40;99.90;;;;;;4963502;28;20049;-59
2022/03/17 05:28:25;;;;;;;54.35;30.38;;;5.40;99.90;;;;;;4961864;28;20060;-60
2022/03/17 05:30:52;;;;;;;45.10;25.27;;;5.40;99.90;;;;;;4964054;28;20489;-60
2022/03/17 05:33:18;;;;;;;52.40;28.73;;;5.40;99.90;;;;;;4961177;28;20297;-60
2022/03/17 05:35:45;;;;;;;;;;;5.40;99.90;;;;;;4963017;28;20275;-60
2022/03/17 05:38:12;;;;;;;49.05;27.05;;;5.30;99.90;;;;;;4962330;28;19944;-49
2022/03/17 05:40:40;;;;;;;49.05;28.75;;;5.30;99.90;;;;;;4963978;28;20098;-51
2022/03/17 05:43:08;;;;;;;53.90;28.25;;;5.30;99.90;;;;;;4967042;28;20112;-49
2022/03/17 05:45:37;;;;;;;52.55;28.27;;;5.30;99.90;;;;;;4960361;28;20045;-56
2022/03/17 05:48:06;;;;;;;50.67;28.38;;;5.30;99.90;;;;;;4962747;28;20053;-55
2022/03/17 05:50:38;;;;;;;57.97;31.13;;;5.30;99.90;;;;;;4963454;28;20219;-56
2022/03/17 05:53:07;;;;;;;58.08;31.40;;;5.30;99.90;;;;;;4959535;28;20058;-55
2022/03/17 05:55:34;;;;;;;65.38;32.20;;;5.30;99.90;;;;;;4944958;28;20192;-55
2022/03/17 05:58:02;;;;;;;53.28;30.67;;;5.30;99.90;;;;;;4963286;28;20077;-56
2022/03/17 06:00:30;;;;;;;60.15;30.50;;;5.30;99.90;;;;;;4963760;28;20426;-56
2022/03/17 06:02:58;;;;;;;51.72;28.88;;;5.30;99.90;;;;;;4963569;28;20145;-56
2022/03/17 06:05:26;;;;;;;58.97;30.20;;;5.30;99.90;;;;;;4961142;28;20120;-56
2022/03/17 06:07:55;;;;;;;50.35;29.10;;;5.30;99.90;;;;;;4962104;28;20968;-58
2022/03/17 06:10:27;;;;;;;53.63;28.05;;;5.30;99.90;;;;;;4960587;28;20573;-55
2022/03/17 06:12:55;;;;;;;47.72;27.17;;;5.40;99.90;;;;;;4960944;28;20034;-56
2022/03/17 06:15:24;;;;;;;50.75;28.25;;;5.40;99.90;;;;;;4962960;28;20555;-55
2022/03/17 06:17:59;;;;;;;46.80;25.90;;;5.40;99.90;;;;;;4961662;28;20042;-55
2022/03/17 06:20:29;;;;;;;54.67;29.58;;;5.40;99.90;;;;;;4942160;28;20156;-55
2022/03/17 06:22:59;;;;;;;49.42;26.23;;;5.50;99.90;;;;;;4958803;28;20144;-55
2022/03/17 06:25:27;;;;;;;43.17;26.20;;;5.50;99.90;;;;;;4959336;28;20610;-55
2022/03/17 06:27:54;;;;;;;48.08;27.42;;;5.50;99.90;;;;;;4961332;28;20827;-56
2022/03/17 06:30:34;;;;;;;47.97;27.15;;;5.60;99.90;;;;;;4961701;28;20839;-55
2022/03/17 06:33:02;;;;;;;57.70;25.27;;;5.60;99.90;;;;;;4946710;28;20049;-55
2022/03/17 06:35:29;;;;;;;45.38;26.00;;;5.60;99.90;;;;;;4965921;28;20048;-56
2022/03/17 06:38:01;;;;;;;46.00;24.67;;;5.70;99.90;;;;;;4962722;28;20037;-56
2022/03/17 06:40:29;;;;;;;45.67;21.67;;;5.70;99.90;;;;;;4948144;28;20046;-56
2022/03/17 06:42:57;;;;;;;34.17;18.85;;;5.70;99.90;;;;;;4961194;28;20045;-56
2022/03/17 06:45:25;;;;;;;63.42;24.98;;;5.70;99.90;;;;;;4964012;28;20038;-56
2022/03/17 06:47:52;;;;;;;48.30;24.15;;;5.80;99.90;;;;;;4964188;28;20304;-57
2022/03/17 06:50:22;;;;;;;42.78;23.55;;;5.90;99.90;;;;;;4965198;28;20042;-54
2022/03/17 06:52:50;;;;;;;46.13;21.85;;;5.90;99.90;;;;;;4964064;28;20045;-56
2022/03/17 06:55:18;;;;;;;44.92;22.45;;;6.00;99.90;;;;;;4946368;28;20669;-54
2022/03/17 06:57:45;;;;;;;48.08;24.85;;;6.00;99.90;;;;;;4963666;28;20042;-53
2022/03/17 07:00:15;;;;;;;52.05;24.10;;;6.10;99.90;;;;;;4964431;28;20034;-56
2022/03/17 07:02:42;;;;;;;48.28;22.98;;;6.20;99.90;;;;;;4961838;28;20045;-55
2022/03/17 07:05:10;;;;;;;44.65;21.15;;;6.20;99.90;;;;;;4963879;28;20111;-56
2022/03/17 07:07:38;;;;;;;46.83;21.77;;;6.30;99.90;;;;;;4962372;28;20060;-54
2022/03/17 07:10:06;;;;;;;35.25;20.10;;;6.30;99.90;;;;;;4965962;28;20077;-55
2022/03/17 07:12:34;;;;;;;48.75;19.88;;;6.30;99.90;;;;;;4964155;28;20046;-55
2022/03/17 07:15:02;;;;;;;40.33;19.80;;;6.40;99.90;;;;;;4964298;28;20042;-54
2022/03/17 07:17:39;;;;;;;32.30;18.92;;;6.40;99.90;;;;;;4966266;28;20050;-55
2022/03/17 07:20:12;;;;;;;38.72;18.85;;;6.40;99.90;;;;;;4965722;28;20605;-53
2022/03/17 07:22:42;;;;;;;43.15;20.40;;;6.40;99.90;;;;;;4964325;28;20381;-53
2022/03/17 07:25:10;;;;;;;44.22;20.27;;;6.50;99.90;;;;;;4963399;28;20540;-53
2022/03/17 07:27:43;;;;;;;40.38;20.20;;;6.50;99.90;;;;;;4965959;28;20050;-54
2022/03/17 07:30:18;;;;;;;41.80;20.20;;;6.50;99.90;;;;;;4964291;28;20855;-53
2022/03/17 07:32:52;;;;;;;44.60;20.95;;;6.60;99.90;;;;;;4964609;28;20038;-55
2022/03/17 07:35:19;;;;;;;34.22;20.67;;;6.60;99.90;;;;;;4962177;28;20072;-54
2022/03/17 07:37:46;;;;;;;42.95;22.20;;;6.70;99.90;;;;;;4963185;28;20491;-54
2022/03/17 07:40:13;;;;;;;;;;;6.80;99.90;;;;;;4966449;28;20269;-53
2022/03/17 07:42:40;;;;;;;39.80;19.73;;;6.80;99.90;;;;;;4961285;28;19956;-52
2022/03/17 07:45:16;;;;;;;38.00;20.75;;;6.90;99.90;;;;;;4962149;28;20452;-52
2022/03/17 07:48:05;;;;;;;38.88;21.80;;;7.00;99.90;;;;;;4963528;28;20116;-53
2022/03/17 07:50:33;;;;;;;45.65;23.40;;;7.10;99.90;;;;;;4963812;28;20038;-54
2022/03/17 07:53:00;;;;;;;46.88;24.00;;;7.20;99.90;;;;;;4960352;28;20049;-52
2022/03/17 07:55:27;;;;;;;42.88;23.92;;;7.30;99.90;;;;;;4962948;28;20804;-53
2022/03/17 07:57:54;;;;;;;;;;;7.40;99.90;;;;;;4962984;28;20053;-54
2022/03/17 08:00:21;;;;;;;43.20;26.25;;;7.50;99.90;;;;;;4965806;28;19922;-54
2022/03/17 08:02:48;;;;;;;44.58;27.60;;;7.60;99.90;;;;;;4961926;28;20042;-54
2022/03/17 08:05:15;;;;;;;51.13;28.85;;;7.80;99.90;;;;;;4963729;28;20046;-54
2022/03/17 08:07:42;;;;;;;43.90;27.85;;;7.90;99.90;;;;;;4963702;28;20045;-56
2022/03/17 08:10:09;;;;;;;;;;;8.00;99.90;;;;;;4964997;28;20705;-55
2022/03/17 08:12:36;;;;;;;54.72;29.60;;;8.20;99.90;;;;;;4962966;28;19921;-58
2022/03/17 08:15:05;;;;;;;50.60;27.70;;;8.30;99.90;;;;;;4961786;28;20228;-56
2022/03/17 08:17:33;;;;;;;55.70;29.30;;;8.40;99.90;;;;;;4964318;28;20057;-55
2022/03/17 08:20:01;;;;;;;51.22;26.70;;;8.60;99.90;;;;;;4963344;28;20492;-54
2022/03/17 08:22:28;;;;;;;42.28;26.73;;;8.70;99.90;;;;;;4962173;28;20046;-55
2022/03/17 08:24:54;;;;;;;;;;;8.80;99.90;;;;;;4961763;28;20064;-53
2022/03/17 08:27:21;;;;;;;48.83;27.83;;;9.00;99.90;;;;;;4963161;28;20120;-55
2022/03/17 08:29:48;;;;;;;46.45;28.45;;;9.10;99.90;;;;;;4962435;28;20254;-55
2022/03/17 08:32:15;;;;;;;51.78;26.30;;;9.20;99.90;;;;;;4962889;28;20112;-54
2022/03/17 08:34:43;;;;;;;62.22;29.40;;;9.30;99.90;;;;;;4962686;28;20340;-55
2022/03/17 08:37:09;;;;;;;53.15;24.15;;;9.30;99.90;;;;;;4961482;28;20053;-55
2022/03/17 08:39:36;;;;;;;;;;;9.40;99.90;;;;;;4962895;28;20037;-67
2022/03/17 08:42:04;;;;;;;53.42;26.40;;;9.60;99.90;;;;;;4964386;28;19925;-56
2022/03/17 08:44:31;;;;;;;52.40;28.27;;;9.70;99.90;;;;;;4964496;28;20064;-54
2022/03/17 08:49:44;;;;;;;44.95;25.45;;;10.10;99.90;;;;;;4961601;28;20052;-56
2022/03/17 08:52:12;;;;;;;36.80;24.35;;;10.20;99.90;;;;;;4960919;28;20049;-57
2022/03/17 08:54:39;;;;;;;;;;;10.40;99.90;;;;;;4961661;28;20042;-56
2022/03/17 08:57:06;;;;;;;39.20;25.90;;;10.60;99.90;;;;;;4961872;28;19925;-56
2022/03/17 08:59:34;;;;;;;;;;;10.80;99.90;;;;;;4963076;28;20937;-55
2022/03/17 09:02:05;;;;;;;40.65;23.52;;;11.00;99.90;;;;;;4960226;28;19948;-57
2022/03/17 09:04:33;;;;;;;53.15;25.95;;;11.20;99.90;;;;;;4962217;28;20681;-63
2022/03/17 09:07:02;;;;;;;42.47;25.15;;;11.60;99.90;;;;;;4961064;28;20473;-63
2022/03/17 09:09:33;;;;;;;42.97;25.75;;;11.80;99.90;;;;;;4962930;28;20030;-59
2022/03/17 09:12:05;;;;;;;48.65;24.98;;;12.00;99.90;;;;;;4964123;28;20045;-56
2022/03/17 09:14:34;;;;;;;49.45;26.75;;;12.20;99.90;;;;;;4963380;28;20042;-59
2022/03/17 09:17:01;;;;;;;47.70;25.73;;;12.30;99.90;;;;;;4963226;28;20403;-58
2022/03/17 09:19:28;;;;;;;48.00;24.05;;;12.40;99.90;;;;;;4963542;28;20202;-57
2022/03/17 09:21:56;;;;;;;;;;;12.60;99.90;;;;;;4963015;28;20331;-58
2022/03/17 09:24:23;;;;;;;44.17;24.98;;;12.70;99.90;;;;;;4961746;28;19933;-57
2022/03/17 09:26:53;;;;;;;42.33;24.77;;;12.80;99.90;;;;;;4964009;28;20139;-58
2022/03/17 09:29:19;;;;;;;;;;;13.00;99.90;;;;;;4963098;28;20919;-58
2022/03/17 09:31:46;;;;;;;53.20;26.70;;;13.10;99.90;;;;;;4964961;28;20545;-58
2022/03/17 09:34:13;;;;;;;39.90;24.75;;;13.20;99.90;;;;;;4959566;28;20760;-58
2022/03/17 09:36:40;;;;;;;44.17;24.67;;;13.30;99.90;;;;;;4962012;28;20064;-59
2022/03/17 09:41:54;;;;;;;40.83;25.83;;;13.70;99.90;;;;;;4963027;28;20149;-58
2022/03/17 09:44:20;;;;;;;46.53;27.35;;;13.90;99.90;;;;;;4962267;28;20758;-58
2022/03/17 09:46:48;;;;;;;;;;;14.00;99.90;;;;;;4946397;28;20056;-58
2022/03/17 09:49:16;;;;;;;70.57;29.83;;;14.10;99.90;;;;;;4963971;28;19921;-59
2022/03/17 09:51:43;;;;;;;47.17;26.45;;;14.20;99.90;;;;;;4961896;28;20046;-52
2022/03/17 09:54:10;;;;;;;47.78;27.98;;;14.20;99.90;;;;;;4962580;28;20046;-52
2022/03/17 09:56:37;;;;;;;45.83;27.90;;;14.20;99.90;;;;;;4964379;28;20183;-53
2022/03/17 09:59:06;;;;;;;45.42;26.90;;;14.20;99.90;;;;;;4965453;28;20048;-49
2022/03/17 10:01:35;;;;;;;49.80;27.92;;;14.20;99.90;;;;;;4965568;28;20038;-50
2022/03/17 10:04:03;;;;;;;43.75;28.25;;;14.20;99.90;;;;;;4964501;28;20053;-57
2022/03/17 10:06:31;;;;;;;43.47;27.52;;;14.10;99.90;;;;;;4966103;28;20034;-57
2022/03/17 10:08:58;;;;;;;49.55;28.08;;;14.20;99.90;;;;;;4961845;28;20747;-55
2022/03/17 10:11:27;;;;;;;44.75;27.75;;;14.20;99.90;;;;;;4965925;28;20049;-55
2022/03/17 10:13:56;;;;;;;49.67;28.75;;;14.20;99.90;;;;;;4963414;28;20325;-54
2022/03/17 10:16:24;;;;;;;47.83;26.25;;;14.30;99.90;;;;;;4962860;28;20410;-54
2022/03/17 10:19:08;;;;;;;47.03;26.77;;;14.40;99.90;;;;;;4960852;28;20495;-54
2022/03/17 10:21:37;;;;;;;43.35;27.42;;;14.50;99.90;;;;;;4961282;28;20191;-55
2022/03/17 10:24:08;;;;;;;39.65;26.20;;;14.50;99.90;;;;;;4962657;28;20049;-55
2022/03/17 10:26:54;;;;;;;39.50;24.98;;;14.60;99.90;;;;;;4962102;28;20105;-55
2022/03/17 10:29:25;;;;;;;43.35;26.05;;;14.60;99.90;;;;;;4964035;28;20048;-57
2022/03/17 10:32:11;;;;;;;54.83;33.45;;;14.70;99.90;;;;;;4966090;28;20049;-54
2022/03/17 10:34:47;;;;;;;48.60;30.75;;;14.70;99.90;;;;;;4961616;28;20053;-56
2022/03/17 10:37:16;;;;;;;44.15;30.27;;;14.70;99.90;;;;;;4962239;28;20050;-55
2022/03/17 10:39:46;;;;;;;45.83;32.25;;;14.80;99.90;;;;;;4944833;28;20576;-55
2022/03/17 10:42:14;;;;;;;45.95;31.88;;;14.80;99.90;;;;;;4961139;28;20419;-55
2022/03/17 10:44:45;;;;;;;46.80;32.53;;;14.70;99.90;;;;;;4960894;28;20357;-56
2022/03/17 10:47:13;;;;;;;48.53;31.27;;;14.70;99.90;;;;;;4947685;28;20523;-54
2022/03/17 10:49:58;;;;;;;;;;;14.60;99.90;;;;;;4958469;28;20274;-56
2022/03/17 10:52:25;;;;;;;54.67;34.53;;;14.60;99.90;;;;;;4960126;28;20174;-55
2022/03/17 10:54:58;;;;;;;52.88;34.55;;;14.50;99.90;;;;;;4962266;28;20030;-55
2022/03/17 10:57:27;;;;;;;48.00;35.28;;;14.40;99.90;;;;;;4961871;28;20044;-55
2022/03/17 10:59:55;;;;;;;47.63;34.40;;;14.40;99.90;;;;;;4962394;28;20056;-55
2022/03/17 11:02:24;;;;;;;54.30;37.25;;;14.30;99.90;;;;;;4963458;28;20057;-56
2022/03/17 11:04:52;;;;;;;51.10;36.65;;;14.20;99.90;;;;;;4945656;28;20833;-56
2022/03/17 11:07:21;;;;;;;41.60;32.88;;;14.20;99.90;;;;;;4963146;28;20080;-55
2022/03/17 11:09:49;;;;;;;57.25;38.85;;;14.10;99.90;;;;;;4962703;28;20034;-55
2022/03/17 11:12:17;;;;;;;51.78;36.55;;;14.10;99.90;;;;;;4963386;28;20061;-56
2022/03/17 11:14:55;;;;;;;48.53;36.00;;;14.10;99.90;;;;;;4961009;28;20287;-56
2022/03/17 11:17:47;;;;;;;48.88;36.08;;;14.00;99.90;;;;;;4962524;28;20046;-55
2022/03/17 11:20:22;;;;;;;58.92;38.15;;;14.00;99.90;;;;;;4958898;28;20222;-56
2022/03/17 11:23:25;;;;;;;49.88;36.25;;;14.00;99.90;;;;;;4946366;28;20799;-55
2022/03/17 11:25:57;;;;;;;53.97;39.10;;;14.00;99.90;;;;;;4961987;28;20054;-56
2022/03/17 11:28:37;;;;;;;55.15;38.08;;;14.00;99.90;;;;;;4964673;28;20714;-56
2022/03/17 11:31:07;;;;;;;54.72;36.42;;;13.90;99.90;;;;;;4963301;28;20939;-56
2022/03/17 11:33:39;;;;;;;53.65;37.78;;;13.90;99.90;;;;;;4962136;28;20420;-57
2022/03/17 11:36:09;;;;;;;53.83;37.20;;;13.80;99.90;;;;;;4965270;28;20049;-54
2022/03/17 11:38:38;;;;;;;51.55;39.17;;;13.80;99.90;;;;;;4963634;28;20935;-53
2022/03/17 11:41:13;;;;;;;52.72;37.95;;;13.70;99.90;;;;;;4965671;28;20117;-54
2022/03/17 11:43:46;;;;;;;50.28;37.67;;;13.70;99.90;;;;;;4962292;28;20056;-54
2022/03/17 11:46:20;;;;;;;50.13;38.80;;;13.70;99.90;;;;;;4962602;28;20050;-53
2022/03/17 11:48:51;;;;;;;52.55;38.85;;;13.60;99.90;;;;;;4965431;28;20128;-56
2022/03/17 11:51:19;;;;;;;54.22;37.67;;;13.50;99.90;;;;;;4963601;28;20050;-55
2022/03/17 11:53:47;;;;;;;60.80;40.45;;;13.50;99.90;;;;;;4964398;28;20046;-55
2022/03/17 11:56:47;;;;;;;53.63;36.85;;;13.50;99.90;;;;;;4964309;28;20535;-55
2022/03/17 11:59:18;;;;;;;49.45;36.22;;;13.50;99.90;;;;;;4963090;28;20049;-56
2022/03/17 12:01:47;;;;;;;52.63;36.42;;;13.50;99.90;;;;;;4963523;28;20816;-56
2022/03/17 12:04:30;;;;;;;52.08;37.67;;;13.60;99.90;;;;;;4963216;28;20034;-56
2022/03/17 12:07:11;;;;;;;51.78;38.03;;;13.50;99.90;;;;;;4963624;28;20598;-56
2022/03/17 12:09:38;;;;;;;57.80;38.85;;;13.60;99.90;;;;;;4964276;28;20226;-55
2022/03/17 12:12:22;;;;;;;52.40;37.97;;;13.50;99.90;;;;;;4962720;28;20050;-54
2022/03/17 12:14:50;;;;;;;51.35;36.75;;;13.60;99.90;;;;;;4962099;28;20045;-54
2022/03/17 12:17:19;;;;;;;49.70;35.58;;;13.50;99.90;;;;;;4965435;28;20544;-54
2022/03/17 12:19:51;;;;;;;49.70;36.63;;;13.60;99.90;;;;;;4963566;28;20478;-54
2022/03/17 12:22:33;;;;;;;48.58;34.45;;;13.50;99.90;;;;;;4963590;28;20046;-54
2022/03/17 12:25:11;;;;;;;50.42;36.42;;;13.60;99.90;;;;;;4963275;28;20050;-54
2022/03/17 12:27:40;;;;;;;50.03;37.30;;;13.50;99.90;;;;;;4962928;28;20038;-54
2022/03/17 12:30:13;;;;;;;55.92;38.83;;;13.50;99.90;;;;;;4961904;28;20029;-54
2022/03/17 12:32:51;;;;;;;50.97;37.08;;;13.40;99.90;;;;;;4960957;28;20042;-55
2022/03/17 12:35:21;;;;;;;51.30;37.15;;;13.40;99.90;;;;;;4961212;28;20818;-55
2022/03/17 12:37:56;;;;;;;58.80;40.63;;;13.40;99.90;;;;;;4961610;28;20045;-55
2022/03/17 12:40:25;;;;;;;59.55;37.72;;;13.30;99.90;;;;;;4962511;28;20042;-54
2022/03/17 12:42:53;;;;;;;53.38;37.78;;;13.30;99.90;;;;;;4961296;28;20069;-55
2022/03/17 12:45:24;;;;;;;51.85;36.95;;;13.20;99.90;;;;;;4964264;28;20939;-55
2022/03/17 12:47:58;;;;;;;56.15;40.38;;;13.20;99.90;;;;;;4963260;28;20046;-55
2022/03/17 12:50:29;;;;;;;58.65;39.75;;;13.20;99.90;;;;;;4962902;28;20828;-53
2022/03/17 12:52:56;;;;;;;56.90;40.60;;;13.10;99.90;;;;;;4944505;28;20400;-53
2022/03/17 12:55:23;;;;;;;52.55;39.15;;;13.10;99.90;;;;;;4962022;28;20042;-54
2022/03/17 12:57:50;;;;;;;59.15;40.90;;;13.00;99.90;;;;;;4962566;28;20057;-53
2022/03/17 13:00:23;;;;;;;60.88;42.05;;;12.90;99.90;;;;;;4961211;28;20156;-53
2022/03/17 13:02:54;;;;;;;65.63;42.88;;;12.90;99.90;;;;;;4961537;28;20883;-53